sensor_id;sensor_type;location;lat;lon;timestamp;P1;durP1;ratioP1;P2;durP2;ratioP2
20743;SDS011;56303;52.160;-0.428;2022-10-31T00:01:11;12.97;;;4.10;;
20743;SDS011;56303;52.160;-0.428;2022-10-31T00:03:39;15.83;;;4.53;;
20743;SDS011;56303;52.160;-0.428;2022-10-31T00:06:06;14.80;;;5.50;;
20743;SDS011;56303;52.160;-0.428;2022-10-31T00:08:33;18.83;;;4.53;;
20743;SDS011;56303;52.160;-0.428;2022-10-31T00:11:00;23.73;;;5.47;;
20743;SDS011;56303;52.160;-0.428;2022-10-31T00:13:27;18.13;;;5.03;;
20743;SDS011;56303;52.160;-0.428;2022-10-31T00:15:54;17.17;;;4.37;;
20743;SDS011;56303;52.160;-0.428;2022-10-31T00:18:21;17.80;;;5.50;;
20743;SDS011;56303;52.160;-0.428;2022-10-31T00:20:47;13.77;;;4.53;;
20743;SDS011;56303;52.160;-0.428;2022-10-31T00:23:14;15.40;;;5.03;;
20743;SDS011;56303;52.160;-0.428;2022-10-31T00:25:41;16.90;;;4.53;;
20743;SDS011;56303;52.160;-0.428;2022-10-31T00:28:08;14.50;;;4.53;;
20743;SDS011;56303;52.160;-0.428;2022-10-31T00:30:37;13.03;;;4.10;;
20743;SDS011;56303;52.160;-0.428;2022-10-31T00:33:04;16.40;;;4.97;;
20743;SDS011;56303;52.160;-0.428;2022-10-31T00:35:31;14.00;;;3.87;;
20743;SDS011;56303;52.160;-0.428;2022-10-31T00:37:58;14.73;;;4.67;;
20743;SDS011;56303;52.160;-0.428;2022-10-31T00:40:25;14.17;;;4.57;;
20743;SDS011;56303;52.160;-0.428;2022-10-31T00:42:52;15.87;;;5.47;;
20743;SDS011;56303;52.160;-0.428;2022-10-31T00:45:19;20.73;;;4.70;;
20743;SDS011;56303;52.160;-0.428;2022-10-31T00:47:46;13.53;;;4.53;;
20743;SDS011;56303;52.160;-0.428;2022-10-31T00:50:13;20.90;;;5.50;;
20743;SDS011;56303;52.160;-0.428;2022-10-31T00:52:39;18.23;;;5.33;;
20743;SDS011;56303;52.160;-0.428;2022-10-31T00:55:06;17.97;;;4.67;;
20743;SDS011;56303;52.160;-0.428;2022-10-31T00:57:33;17.60;;;4.73;;
20743;SDS011;56303;52.160;-0.428;2022-10-31T01:00:00;22.63;;;5.30;;
20743;SDS011;56303;52.160;-0.428;2022-10-31T01:02:27;13.20;;;4.77;;
20743;SDS011;56303;52.160;-0.428;2022-10-31T01:04:54;17.30;;;5.10;;
20743;SDS011;56303;52.160;-0.428;2022-10-31T01:07:20;17.23;;;5.47;;
20743;SDS011;56303;52.160;-0.428;2022-10-31T01:09:47;16.13;;;4.70;;
20743;SDS011;56303;52.160;-0.428;2022-10-31T01:12:14;19.53;;;5.77;;
20743;SDS011;56303;52.160;-0.428;2022-10-31T01:14:44;16.97;;;4.83;;
20743;SDS011;56303;52.160;-0.428;2022-10-31T01:17:12;19.83;;;5.20;;
20743;SDS011;56303;52.160;-0.428;2022-10-31T01:19:39;18.17;;;5.90;;
20743;SDS011;56303;52.160;-0.428;2022-10-31T01:22:06;16.00;;;5.40;;
20743;SDS011;56303;52.160;-0.428;2022-10-31T01:24:33;17.77;;;5.37;;
20743;SDS011;56303;52.160;-0.428;2022-10-31T01:26:59;19.63;;;5.07;;
20743;SDS011;56303;52.160;-0.428;2022-10-31T01:29:27;20.43;;;5.97;;
20743;SDS011;56303;52.160;-0.428;2022-10-31T01:31:53;20.40;;;5.30;;
20743;SDS011;56303;52.160;-0.428;2022-10-31T01:34:20;17.03;;;5.33;;
20743;SDS011;56303;52.160;-0.428;2022-10-31T01:36:47;18.07;;;5.40;;
20743;SDS011;56303;52.160;-0.428;2022-10-31T01:39:17;13.20;;;4.53;;
20743;SDS011;56303;52.160;-0.428;2022-10-31T01:41:49;17.27;;;4.80;;
20743;SDS011;56303;52.160;-0.428;2022-10-31T01:49:24;11.07;;;4.10;;
20743;SDS011;56303;52.160;-0.428;2022-10-31T01:52:00;15.97;;;4.97;;
20743;SDS011;56303;52.160;-0.428;2022-10-31T01:54:46;14.07;;;4.93;;
20743;SDS011;56303;52.160;-0.428;2022-10-31T01:57:21;16.07;;;4.73;;
20743;SDS011;56303;52.160;-0.428;2022-10-31T01:59:49;15.40;;;4.53;;
20743;SDS011;56303;52.160;-0.428;2022-10-31T02:02:20;18.80;;;4.87;;
20743;SDS011;56303;52.160;-0.428;2022-10-31T02:04:47;15.80;;;4.10;;
20743;SDS011;56303;52.160;-0.428;2022-10-31T02:07:14;13.50;;;4.37;;
20743;SDS011;56303;52.160;-0.428;2022-10-31T02:09:47;17.60;;;4.33;;
20743;SDS011;56303;52.160;-0.428;2022-10-31T02:12:15;13.30;;;4.13;;
20743;SDS011;56303;52.160;-0.428;2022-10-31T02:14:43;14.87;;;4.70;;
20743;SDS011;56303;52.160;-0.428;2022-10-31T02:17:10;15.80;;;4.43;;
20743;SDS011;56303;52.160;-0.428;2022-10-31T02:20:20;15.70;;;4.73;;
20743;SDS011;56303;52.160;-0.428;2022-10-31T02:28:15;16.93;;;4.77;;
20743;SDS011;56303;52.160;-0.428;2022-10-31T02:31:21;12.53;;;4.37;;
20743;SDS011;56303;52.160;-0.428;2022-10-31T02:34:06;15.13;;;4.40;;
20743;SDS011;56303;52.160;-0.428;2022-10-31T02:36:48;10.40;;;3.63;;
20743;SDS011;56303;52.160;-0.428;2022-10-31T02:39:24;12.93;;;4.23;;
20743;SDS011;56303;52.160;-0.428;2022-10-31T02:42:08;13.90;;;4.33;;
20743;SDS011;56303;52.160;-0.428;2022-10-31T02:47:44;10.23;;;4.00;;
20743;SDS011;56303;52.160;-0.428;2022-10-31T02:50:19;15.80;;;4.27;;
20743;SDS011;56303;52.160;-0.428;2022-10-31T02:52:50;14.23;;;4.47;;
20743;SDS011;56303;52.160;-0.428;2022-10-31T02:57:51;16.03;;;4.63;;
20743;SDS011;56303;52.160;-0.428;2022-10-31T03:00:21;15.23;;;3.93;;
20743;SDS011;56303;52.160;-0.428;2022-10-31T03:05:57;16.17;;;3.83;;
20743;SDS011;56303;52.160;-0.428;2022-10-31T03:11:08;12.57;;;4.33;;
20743;SDS011;56303;52.160;-0.428;2022-10-31T03:13:41;17.63;;;4.30;;
20743;SDS011;56303;52.160;-0.428;2022-10-31T03:21:32;14.80;;;4.97;;
20743;SDS011;56303;52.160;-0.428;2022-10-31T03:24:15;17.10;;;4.60;;
20743;SDS011;56303;52.160;-0.428;2022-10-31T03:26:44;16.03;;;4.00;;
20743;SDS011;56303;52.160;-0.428;2022-10-31T03:29:16;14.33;;;4.47;;
20743;SDS011;56303;52.160;-0.428;2022-10-31T03:31:49;12.87;;;3.80;;
20743;SDS011;56303;52.160;-0.428;2022-10-31T03:34:23;13.57;;;3.87;;
20743;SDS011;56303;52.160;-0.428;2022-10-31T03:36:51;16.07;;;3.83;;
20743;SDS011;56303;52.160;-0.428;2022-10-31T03:39:21;14.20;;;3.70;;
20743;SDS011;56303;52.160;-0.428;2022-10-31T03:41:52;15.50;;;4.10;;
20743;SDS011;56303;52.160;-0.428;2022-10-31T03:44:29;12.93;;;4.03;;
20743;SDS011;56303;52.160;-0.428;2022-10-31T03:46:57;12.00;;;3.73;;
20743;SDS011;56303;52.160;-0.428;2022-10-31T03:49:24;12.40;;;4.30;;
20743;SDS011;56303;52.160;-0.428;2022-10-31T03:51:54;17.70;;;4.20;;
20743;SDS011;56303;52.160;-0.428;2022-10-31T03:54:33;13.80;;;4.47;;
20743;SDS011;56303;52.160;-0.428;2022-10-31T03:57:05;13.57;;;4.00;;
20743;SDS011;56303;52.160;-0.428;2022-10-31T03:59:57;14.57;;;3.43;;
20743;SDS011;56303;52.160;-0.428;2022-10-31T04:02:32;13.73;;;3.73;;
20743;SDS011;56303;52.160;-0.428;2022-10-31T04:05:01;18.70;;;4.30;;
20743;SDS011;56303;52.160;-0.428;2022-10-31T04:07:30;18.90;;;4.87;;
20743;SDS011;56303;52.160;-0.428;2022-10-31T04:10:01;14.57;;;4.33;;
20743;SDS011;56303;52.160;-0.428;2022-10-31T04:12:32;12.63;;;3.90;;
20743;SDS011;56303;52.160;-0.428;2022-10-31T04:15:00;16.97;;;4.37;;
20743;SDS011;56303;52.160;-0.428;2022-10-31T04:17:31;14.33;;;3.97;;
20743;SDS011;56303;52.160;-0.428;2022-10-31T04:20:02;11.87;;;4.30;;
20743;SDS011;56303;52.160;-0.428;2022-10-31T04:22:29;15.37;;;4.90;;
20743;SDS011;56303;52.160;-0.428;2022-10-31T04:24:56;13.47;;;4.57;;
20743;SDS011;56303;52.160;-0.428;2022-10-31T04:27:22;15.50;;;5.07;;
20743;SDS011;56303;52.160;-0.428;2022-10-31T04:29:49;17.30;;;4.73;;
20743;SDS011;56303;52.160;-0.428;2022-10-31T04:32:16;13.13;;;4.43;;
20743;SDS011;56303;52.160;-0.428;2022-10-31T04:34:43;21.03;;;5.27;;
20743;SDS011;56303;52.160;-0.428;2022-10-31T04:37:10;16.87;;;6.30;;
20743;SDS011;56303;52.160;-0.428;2022-10-31T04:39:37;16.73;;;5.53;;
20743;SDS011;56303;52.160;-0.428;2022-10-31T04:42:04;20.40;;;5.13;;
20743;SDS011;56303;52.160;-0.428;2022-10-31T04:44:30;18.83;;;5.53;;
20743;SDS011;56303;52.160;-0.428;2022-10-31T04:46:57;13.10;;;6.10;;
20743;SDS011;56303;52.160;-0.428;2022-10-31T04:49:24;14.43;;;5.13;;
20743;SDS011;56303;52.160;-0.428;2022-10-31T04:51:51;19.67;;;6.30;;
20743;SDS011;56303;52.160;-0.428;2022-10-31T04:54:17;15.83;;;5.80;;
20743;SDS011;56303;52.160;-0.428;2022-10-31T04:56:44;19.60;;;5.67;;
20743;SDS011;56303;52.160;-0.428;2022-10-31T04:59:11;16.67;;;5.20;;
20743;SDS011;56303;52.160;-0.428;2022-10-31T05:01:38;21.73;;;6.40;;
20743;SDS011;56303;52.160;-0.428;2022-10-31T05:04:04;21.10;;;7.47;;
20743;SDS011;56303;52.160;-0.428;2022-10-31T05:06:31;20.63;;;7.03;;
20743;SDS011;56303;52.160;-0.428;2022-10-31T05:08:58;15.77;;;6.83;;
20743;SDS011;56303;52.160;-0.428;2022-10-31T05:11:25;21.83;;;6.73;;
20743;SDS011;56303;52.160;-0.428;2022-10-31T05:13:51;20.93;;;6.97;;
20743;SDS011;56303;52.160;-0.428;2022-10-31T05:16:18;24.17;;;8.17;;
20743;SDS011;56303;52.160;-0.428;2022-10-31T05:18:45;19.87;;;7.10;;
20743;SDS011;56303;52.160;-0.428;2022-10-31T05:21:12;23.93;;;6.87;;
20743;SDS011;56303;52.160;-0.428;2022-10-31T05:23:38;20.07;;;6.60;;
20743;SDS011;56303;52.160;-0.428;2022-10-31T05:26:12;19.80;;;7.83;;
20743;SDS011;56303;52.160;-0.428;2022-10-31T05:28:39;18.83;;;6.90;;
20743;SDS011;56303;52.160;-0.428;2022-10-31T05:31:06;20.40;;;7.27;;
20743;SDS011;56303;52.160;-0.428;2022-10-31T05:33:32;18.63;;;6.77;;
20743;SDS011;56303;52.160;-0.428;2022-10-31T05:35:59;18.60;;;7.17;;
20743;SDS011;56303;52.160;-0.428;2022-10-31T05:38:26;19.93;;;7.23;;
20743;SDS011;56303;52.160;-0.428;2022-10-31T05:40:54;21.40;;;7.90;;
20743;SDS011;56303;52.160;-0.428;2022-10-31T05:43:24;24.20;;;8.20;;
20743;SDS011;56303;52.160;-0.428;2022-10-31T05:45:54;19.27;;;6.50;;
20743;SDS011;56303;52.160;-0.428;2022-10-31T05:48:22;21.27;;;7.80;;
20743;SDS011;56303;52.160;-0.428;2022-10-31T05:50:48;19.50;;;7.37;;
20743;SDS011;56303;52.160;-0.428;2022-10-31T05:53:15;21.57;;;7.50;;
20743;SDS011;56303;52.160;-0.428;2022-10-31T05:55:43;23.37;;;7.50;;
20743;SDS011;56303;52.160;-0.428;2022-10-31T05:58:10;20.70;;;7.50;;
20743;SDS011;56303;52.160;-0.428;2022-10-31T06:00:37;20.20;;;7.80;;
20743;SDS011;56303;52.160;-0.428;2022-10-31T06:03:05;23.97;;;8.03;;
20743;SDS011;56303;52.160;-0.428;2022-10-31T06:05:34;21.27;;;7.27;;
20743;SDS011;56303;52.160;-0.428;2022-10-31T06:08:01;14.53;;;5.87;;
20743;SDS011;56303;52.160;-0.428;2022-10-31T06:10:29;18.50;;;7.50;;
20743;SDS011;56303;52.160;-0.428;2022-10-31T06:12:55;19.13;;;6.40;;
20743;SDS011;56303;52.160;-0.428;2022-10-31T06:15:22;22.70;;;8.63;;
20743;SDS011;56303;52.160;-0.428;2022-10-31T06:17:59;14.37;;;6.80;;
20743;SDS011;56303;52.160;-0.428;2022-10-31T06:20:29;22.87;;;7.30;;
20743;SDS011;56303;52.160;-0.428;2022-10-31T06:22:56;17.27;;;6.70;;
20743;SDS011;56303;52.160;-0.428;2022-10-31T06:25:24;23.57;;;7.80;;
20743;SDS011;56303;52.160;-0.428;2022-10-31T06:27:51;22.07;;;8.00;;
20743;SDS011;56303;52.160;-0.428;2022-10-31T06:30:17;16.03;;;7.63;;
20743;SDS011;56303;52.160;-0.428;2022-10-31T06:32:44;18.93;;;7.67;;
20743;SDS011;56303;52.160;-0.428;2022-10-31T06:35:11;18.50;;;7.40;;
20743;SDS011;56303;52.160;-0.428;2022-10-31T06:37:38;23.80;;;8.83;;
20743;SDS011;56303;52.160;-0.428;2022-10-31T06:40:05;25.17;;;7.67;;
20743;SDS011;56303;52.160;-0.428;2022-10-31T06:42:32;20.80;;;6.90;;
20743;SDS011;56303;52.160;-0.428;2022-10-31T06:44:59;22.20;;;7.43;;
20743;SDS011;56303;52.160;-0.428;2022-10-31T06:47:25;21.80;;;7.13;;
20743;SDS011;56303;52.160;-0.428;2022-10-31T06:49:52;20.60;;;6.50;;
20743;SDS011;56303;52.160;-0.428;2022-10-31T06:52:19;15.60;;;6.63;;
20743;SDS011;56303;52.160;-0.428;2022-10-31T06:54:46;20.60;;;6.60;;
20743;SDS011;56303;52.160;-0.428;2022-10-31T06:57:12;17.77;;;5.67;;
20743;SDS011;56303;52.160;-0.428;2022-10-31T06:59:39;21.13;;;6.90;;
20743;SDS011;56303;52.160;-0.428;2022-10-31T07:02:08;18.17;;;6.57;;
20743;SDS011;56303;52.160;-0.428;2022-10-31T07:04:36;20.70;;;6.10;;
20743;SDS011;56303;52.160;-0.428;2022-10-31T07:07:03;21.43;;;7.30;;
20743;SDS011;56303;52.160;-0.428;2022-10-31T07:09:30;19.27;;;8.03;;
20743;SDS011;56303;52.160;-0.428;2022-10-31T07:11:57;19.67;;;8.27;;
20743;SDS011;56303;52.160;-0.428;2022-10-31T07:14:23;24.37;;;8.03;;
20743;SDS011;56303;52.160;-0.428;2022-10-31T07:16:50;15.07;;;6.73;;
20743;SDS011;56303;52.160;-0.428;2022-10-31T07:19:17;17.93;;;7.20;;
20743;SDS011;56303;52.160;-0.428;2022-10-31T07:21:45;19.80;;;7.60;;
20743;SDS011;56303;52.160;-0.428;2022-10-31T07:24:11;16.30;;;7.40;;
20743;SDS011;56303;52.160;-0.428;2022-10-31T07:26:38;20.00;;;7.20;;
20743;SDS011;56303;52.160;-0.428;2022-10-31T07:29:05;17.13;;;6.73;;
20743;SDS011;56303;52.160;-0.428;2022-10-31T07:31:32;18.33;;;6.67;;
20743;SDS011;56303;52.160;-0.428;2022-10-31T07:33:59;18.23;;;7.53;;
20743;SDS011;56303;52.160;-0.428;2022-10-31T07:36:26;16.97;;;7.00;;
20743;SDS011;56303;52.160;-0.428;2022-10-31T07:38:52;19.07;;;7.10;;
20743;SDS011;56303;52.160;-0.428;2022-10-31T07:41:20;15.00;;;6.47;;
20743;SDS011;56303;52.160;-0.428;2022-10-31T07:43:47;17.43;;;6.77;;
20743;SDS011;56303;52.160;-0.428;2022-10-31T07:46:14;15.73;;;6.03;;
20743;SDS011;56303;52.160;-0.428;2022-10-31T07:48:41;19.97;;;6.03;;
20743;SDS011;56303;52.160;-0.428;2022-10-31T07:51:08;20.73;;;6.20;;
20743;SDS011;56303;52.160;-0.428;2022-10-31T07:53:35;19.67;;;6.43;;
20743;SDS011;56303;52.160;-0.428;2022-10-31T07:56:02;16.20;;;5.90;;
20743;SDS011;56303;52.160;-0.428;2022-10-31T07:58:29;13.77;;;5.27;;
20743;SDS011;56303;52.160;-0.428;2022-10-31T08:00:57;17.60;;;5.70;;
20743;SDS011;56303;52.160;-0.428;2022-10-31T08:03:24;14.13;;;5.53;;
20743;SDS011;56303;52.160;-0.428;2022-10-31T08:05:51;19.57;;;6.73;;
20743;SDS011;56303;52.160;-0.428;2022-10-31T08:08:17;15.20;;;6.10;;
20743;SDS011;56303;52.160;-0.428;2022-10-31T08:10:44;11.33;;;6.03;;
20743;SDS011;56303;52.160;-0.428;2022-10-31T08:13:12;20.40;;;6.43;;
20743;SDS011;56303;52.160;-0.428;2022-10-31T08:15:40;18.93;;;6.30;;
20743;SDS011;56303;52.160;-0.428;2022-10-31T08:18:12;16.87;;;6.83;;
20743;SDS011;56303;52.160;-0.428;2022-10-31T08:20:42;19.90;;;7.30;;
20743;SDS011;56303;52.160;-0.428;2022-10-31T08:23:10;16.33;;;6.80;;
20743;SDS011;56303;52.160;-0.428;2022-10-31T08:25:37;13.63;;;6.97;;
20743;SDS011;56303;52.160;-0.428;2022-10-31T08:28:05;16.43;;;7.10;;
20743;SDS011;56303;52.160;-0.428;2022-10-31T08:30:33;13.97;;;5.90;;
20743;SDS011;56303;52.160;-0.428;2022-10-31T08:33:09;16.80;;;5.77;;
20743;SDS011;56303;52.160;-0.428;2022-10-31T08:35:36;14.53;;;5.87;;
20743;SDS011;56303;52.160;-0.428;2022-10-31T08:38:03;20.50;;;6.70;;
20743;SDS011;56303;52.160;-0.428;2022-10-31T08:40:31;16.47;;;6.30;;
20743;SDS011;56303;52.160;-0.428;2022-10-31T08:43:03;13.47;;;5.27;;
20743;SDS011;56303;52.160;-0.428;2022-10-31T08:45:32;16.90;;;6.03;;
20743;SDS011;56303;52.160;-0.428;2022-10-31T08:48:00;15.70;;;6.93;;
20743;SDS011;56303;52.160;-0.428;2022-10-31T08:50:32;21.57;;;6.73;;
20743;SDS011;56303;52.160;-0.428;2022-10-31T08:53:04;19.03;;;6.50;;
20743;SDS011;56303;52.160;-0.428;2022-10-31T08:55:33;13.57;;;5.70;;
20743;SDS011;56303;52.160;-0.428;2022-10-31T08:58:02;21.80;;;6.63;;
20743;SDS011;56303;52.160;-0.428;2022-10-31T09:00:29;20.53;;;7.33;;
20743;SDS011;56303;52.160;-0.428;2022-10-31T09:02:58;14.57;;;5.83;;
20743;SDS011;56303;52.160;-0.428;2022-10-31T09:05:26;12.83;;;6.00;;
20743;SDS011;56303;52.160;-0.428;2022-10-31T09:07:56;13.50;;;6.27;;
20743;SDS011;56303;52.160;-0.428;2022-10-31T09:10:25;14.20;;;6.20;;
20743;SDS011;56303;52.160;-0.428;2022-10-31T09:12:59;13.90;;;5.47;;
20743;SDS011;56303;52.160;-0.428;2022-10-31T09:15:47;14.30;;;5.43;;
20743;SDS011;56303;52.160;-0.428;2022-10-31T09:18:16;17.03;;;4.97;;
20743;SDS011;56303;52.160;-0.428;2022-10-31T09:20:45;17.77;;;5.57;;
20743;SDS011;56303;52.160;-0.428;2022-10-31T09:23:14;24.27;;;5.37;;
20743;SDS011;56303;52.160;-0.428;2022-10-31T09:25:46;14.80;;;6.00;;
20743;SDS011;56303;52.160;-0.428;2022-10-31T09:28:17;15.93;;;5.60;;
20743;SDS011;56303;52.160;-0.428;2022-10-31T09:30:49;14.47;;;5.60;;
20743;SDS011;56303;52.160;-0.428;2022-10-31T09:33:17;12.43;;;5.40;;
20743;SDS011;56303;52.160;-0.428;2022-10-31T09:35:45;12.67;;;5.33;;
20743;SDS011;56303;52.160;-0.428;2022-10-31T09:38:13;10.87;;;4.37;;
20743;SDS011;56303;52.160;-0.428;2022-10-31T09:40:46;15.50;;;4.67;;
20743;SDS011;56303;52.160;-0.428;2022-10-31T09:43:18;16.77;;;4.67;;
20743;SDS011;56303;52.160;-0.428;2022-10-31T09:51:32;13.23;;;4.50;;
20743;SDS011;56303;52.160;-0.428;2022-10-31T09:54:05;12.13;;;4.63;;
20743;SDS011;56303;52.160;-0.428;2022-10-31T09:56:43;14.33;;;4.73;;
20743;SDS011;56303;52.160;-0.428;2022-10-31T10:02:02;12.43;;;4.70;;
20743;SDS011;56303;52.160;-0.428;2022-10-31T10:08:02;10.30;;;4.13;;
20743;SDS011;56303;52.160;-0.428;2022-10-31T10:10:14;14.07;;;4.13;;
20743;SDS011;56303;52.160;-0.428;2022-10-31T10:15:52;14.30;;;4.07;;
20743;SDS011;56303;52.160;-0.428;2022-10-31T10:23:59;13.37;;;4.07;;
20743;SDS011;56303;52.160;-0.428;2022-10-31T10:26:36;12.53;;;3.77;;
20743;SDS011;56303;52.160;-0.428;2022-10-31T10:32:01;16.87;;;4.70;;
20743;SDS011;56303;52.160;-0.428;2022-10-31T10:34:51;13.77;;;3.40;;
20743;SDS011;56303;52.160;-0.428;2022-10-31T10:37:25;16.87;;;4.57;;
20743;SDS011;56303;52.160;-0.428;2022-10-31T10:40:20;13.83;;;4.97;;
20743;SDS011;56303;52.160;-0.428;2022-10-31T10:43:08;11.37;;;3.20;;
20743;SDS011;56303;52.160;-0.428;2022-10-31T10:46:06;12.30;;;3.47;;
20743;SDS011;56303;52.160;-0.428;2022-10-31T10:49:16;12.40;;;3.67;;
20743;SDS011;56303;52.160;-0.428;2022-10-31T10:54:54;11.13;;;3.20;;
20743;SDS011;56303;52.160;-0.428;2022-10-31T11:02:51;10.33;;;3.60;;
20743;SDS011;56303;52.160;-0.428;2022-10-31T11:07:56;14.57;;;3.73;;
20743;SDS011;56303;52.160;-0.428;2022-10-31T11:10:23;14.70;;;4.00;;
20743;SDS011;56303;52.160;-0.428;2022-10-31T11:12:58;8.70;;;2.73;;
20743;SDS011;56303;52.160;-0.428;2022-10-31T11:15:31;9.87;;;3.70;;
20743;SDS011;56303;52.160;-0.428;2022-10-31T11:18:02;11.43;;;3.27;;
20743;SDS011;56303;52.160;-0.428;2022-10-31T11:20:31;9.63;;;3.30;;
20743;SDS011;56303;52.160;-0.428;2022-10-31T11:23:22;12.13;;;3.80;;
20743;SDS011;56303;52.160;-0.428;2022-10-31T11:28:30;16.27;;;3.93;;
20743;SDS011;56303;52.160;-0.428;2022-10-31T11:31:08;10.33;;;3.40;;
20743;SDS011;56303;52.160;-0.428;2022-10-31T11:33:49;13.87;;;3.37;;
20743;SDS011;56303;52.160;-0.428;2022-10-31T11:36:24;10.30;;;3.50;;
20743;SDS011;56303;52.160;-0.428;2022-10-31T11:38:53;14.37;;;3.60;;
20743;SDS011;56303;52.160;-0.428;2022-10-31T11:43:59;9.10;;;3.07;;
20743;SDS011;56303;52.160;-0.428;2022-10-31T11:48:59;7.73;;;3.20;;
20743;SDS011;56303;52.160;-0.428;2022-10-31T11:51:28;8.23;;;2.80;;
20743;SDS011;56303;52.160;-0.428;2022-10-31T11:53:58;11.23;;;4.43;;
20743;SDS011;56303;52.160;-0.428;2022-10-31T11:56:41;7.93;;;3.13;;
20743;SDS011;56303;52.160;-0.428;2022-10-31T12:02:14;9.90;;;2.87;;
20743;SDS011;56303;52.160;-0.428;2022-10-31T12:04:46;7.27;;;2.90;;
20743;SDS011;56303;52.160;-0.428;2022-10-31T12:07:17;10.53;;;3.27;;
20743;SDS011;56303;52.160;-0.428;2022-10-31T12:09:44;9.20;;;3.07;;
20743;SDS011;56303;52.160;-0.428;2022-10-31T12:17:50;8.03;;;2.87;;
20743;SDS011;56303;52.160;-0.428;2022-10-31T12:36:29;8.20;;;3.30;;
20743;SDS011;56303;52.160;-0.428;2022-10-31T12:45:36;9.87;;;3.27;;
20743;SDS011;56303;52.160;-0.428;2022-10-31T12:58:35;10.90;;;2.90;;
20743;SDS011;56303;52.160;-0.428;2022-10-31T13:01:13;6.33;;;2.70;;
20743;SDS011;56303;52.160;-0.428;2022-10-31T13:07:03;6.30;;;2.30;;
20743;SDS011;56303;52.160;-0.428;2022-10-31T13:12:40;11.43;;;3.00;;
20743;SDS011;56303;52.160;-0.428;2022-10-31T13:15:19;9.83;;;2.57;;
20743;SDS011;56303;52.160;-0.428;2022-10-31T13:17:52;8.77;;;2.67;;
20743;SDS011;56303;52.160;-0.428;2022-10-31T13:20:42;7.60;;;2.53;;
20743;SDS011;56303;52.160;-0.428;2022-10-31T13:26:12;7.97;;;2.70;;
20743;SDS011;56303;52.160;-0.428;2022-10-31T13:28:45;6.30;;;2.13;;
20743;SDS011;56303;52.160;-0.428;2022-10-31T13:31:25;6.33;;;2.20;;
20743;SDS011;56303;52.160;-0.428;2022-10-31T13:33:57;4.93;;;2.63;;
20743;SDS011;56303;52.160;-0.428;2022-10-31T13:36:33;7.40;;;2.80;;
20743;SDS011;56303;52.160;-0.428;2022-10-31T13:50:59;5.57;;;2.70;;
20743;SDS011;56303;52.160;-0.428;2022-10-31T13:53:44;6.43;;;2.40;;
20743;SDS011;56303;52.160;-0.428;2022-10-31T13:56:32;7.50;;;2.57;;
20743;SDS011;56303;52.160;-0.428;2022-10-31T14:01:29;7.47;;;2.37;;
20743;SDS011;56303;52.160;-0.428;2022-10-31T14:09:26;7.10;;;2.27;;
20743;SDS011;56303;52.160;-0.428;2022-10-31T14:12:09;5.80;;;2.67;;
20743;SDS011;56303;52.160;-0.428;2022-10-31T14:17:52;7.40;;;2.30;;
20743;SDS011;56303;52.160;-0.428;2022-10-31T14:20:25;5.13;;;2.20;;
20743;SDS011;56303;52.160;-0.428;2022-10-31T14:23:09;4.43;;;2.23;;
20743;SDS011;56303;52.160;-0.428;2022-10-31T14:25:37;7.80;;;2.87;;
20743;SDS011;56303;52.160;-0.428;2022-10-31T14:28:22;5.30;;;2.23;;
20743;SDS011;56303;52.160;-0.428;2022-10-31T14:30:59;6.57;;;2.20;;
20743;SDS011;56303;52.160;-0.428;2022-10-31T14:33:27;5.57;;;2.40;;
20743;SDS011;56303;52.160;-0.428;2022-10-31T14:38:42;6.63;;;2.60;;
20743;SDS011;56303;52.160;-0.428;2022-10-31T14:47:04;7.77;;;2.03;;
20743;SDS011;56303;52.160;-0.428;2022-10-31T14:49:34;5.83;;;1.77;;
20743;SDS011;56303;52.160;-0.428;2022-10-31T14:52:24;6.97;;;2.40;;
20743;SDS011;56303;52.160;-0.428;2022-10-31T14:54:53;4.67;;;2.17;;
20743;SDS011;56303;52.160;-0.428;2022-10-31T14:57:26;7.73;;;2.97;;
20743;SDS011;56303;52.160;-0.428;2022-10-31T15:00:04;6.60;;;2.40;;
20743;SDS011;56303;52.160;-0.428;2022-10-31T15:02:34;8.57;;;2.50;;
20743;SDS011;56303;52.160;-0.428;2022-10-31T15:05:25;6.60;;;2.70;;
20743;SDS011;56303;52.160;-0.428;2022-10-31T15:07:54;6.60;;;2.63;;
20743;SDS011;56303;52.160;-0.428;2022-10-31T15:10:25;7.67;;;2.53;;
20743;SDS011;56303;52.160;-0.428;2022-10-31T15:12:55;7.73;;;2.27;;
20743;SDS011;56303;52.160;-0.428;2022-10-31T15:15:34;4.87;;;2.63;;
20743;SDS011;56303;52.160;-0.428;2022-10-31T15:18:03;5.33;;;2.27;;
20743;SDS011;56303;52.160;-0.428;2022-10-31T15:20:33;8.67;;;2.80;;
20743;SDS011;56303;52.160;-0.428;2022-10-31T15:23:04;5.30;;;2.13;;
20743;SDS011;56303;52.160;-0.428;2022-10-31T15:25:36;7.47;;;2.50;;
20743;SDS011;56303;52.160;-0.428;2022-10-31T15:28:12;7.50;;;2.53;;
20743;SDS011;56303;52.160;-0.428;2022-10-31T15:30:54;6.63;;;2.37;;
20743;SDS011;56303;52.160;-0.428;2022-10-31T15:33:25;5.63;;;2.33;;
20743;SDS011;56303;52.160;-0.428;2022-10-31T15:36:03;6.47;;;2.40;;
20743;SDS011;56303;52.160;-0.428;2022-10-31T15:38:30;6.63;;;2.70;;
20743;SDS011;56303;52.160;-0.428;2022-10-31T15:40:59;4.33;;;2.20;;
20743;SDS011;56303;52.160;-0.428;2022-10-31T15:43:27;7.13;;;2.40;;
20743;SDS011;56303;52.160;-0.428;2022-10-31T15:46:02;6.10;;;2.47;;
20743;SDS011;56303;52.160;-0.428;2022-10-31T15:48:30;4.93;;;2.67;;
20743;SDS011;56303;52.160;-0.428;2022-10-31T15:50:58;5.70;;;2.10;;
20743;SDS011;56303;52.160;-0.428;2022-10-31T15:53:46;5.00;;;2.50;;
20743;SDS011;56303;52.160;-0.428;2022-10-31T15:56:21;7.20;;;2.40;;
20743;SDS011;56303;52.160;-0.428;2022-10-31T15:58:57;6.13;;;2.50;;
20743;SDS011;56303;52.160;-0.428;2022-10-31T16:01:26;7.77;;;2.53;;
20743;SDS011;56303;52.160;-0.428;2022-10-31T16:06:37;7.60;;;2.50;;
20743;SDS011;56303;52.160;-0.428;2022-10-31T16:09:17;8.80;;;2.40;;
20743;SDS011;56303;52.160;-0.428;2022-10-31T16:11:48;7.20;;;2.80;;
20743;SDS011;56303;52.160;-0.428;2022-10-31T16:14:20;5.73;;;2.87;;
20743;SDS011;56303;52.160;-0.428;2022-10-31T16:16:52;5.90;;;2.53;;
20743;SDS011;56303;52.160;-0.428;2022-10-31T16:19:21;4.97;;;2.17;;
20743;SDS011;56303;52.160;-0.428;2022-10-31T16:22:04;5.73;;;2.53;;
20743;SDS011;56303;52.160;-0.428;2022-10-31T16:24:39;6.33;;;2.97;;
20743;SDS011;56303;52.160;-0.428;2022-10-31T16:27:19;7.13;;;2.60;;
20743;SDS011;56303;52.160;-0.428;2022-10-31T16:29:58;7.73;;;2.90;;
20743;SDS011;56303;52.160;-0.428;2022-10-31T16:32:32;6.70;;;2.90;;
20743;SDS011;56303;52.160;-0.428;2022-10-31T16:35:21;5.53;;;2.60;;
20743;SDS011;56303;52.160;-0.428;2022-10-31T16:37:51;7.53;;;2.43;;
20743;SDS011;56303;52.160;-0.428;2022-10-31T16:40:18;10.07;;;2.90;;
20743;SDS011;56303;52.160;-0.428;2022-10-31T16:42:47;6.73;;;2.70;;
20743;SDS011;56303;52.160;-0.428;2022-10-31T16:45:20;3.93;;;2.23;;
20743;SDS011;56303;52.160;-0.428;2022-10-31T16:47:51;6.90;;;2.70;;
20743;SDS011;56303;52.160;-0.428;2022-10-31T16:50:22;7.80;;;3.00;;
20743;SDS011;56303;52.160;-0.428;2022-10-31T16:52:50;6.77;;;3.47;;
20743;SDS011;56303;52.160;-0.428;2022-10-31T16:55:41;8.77;;;3.60;;
20743;SDS011;56303;52.160;-0.428;2022-10-31T16:58:13;7.70;;;3.43;;
20743;SDS011;56303;52.160;-0.428;2022-10-31T17:00:43;7.33;;;3.00;;
20743;SDS011;56303;52.160;-0.428;2022-10-31T17:03:11;8.47;;;3.53;;
20743;SDS011;56303;52.160;-0.428;2022-10-31T17:05:37;8.93;;;3.47;;
20743;SDS011;56303;52.160;-0.428;2022-10-31T17:08:04;10.07;;;3.93;;
20743;SDS011;56303;52.160;-0.428;2022-10-31T17:10:31;9.07;;;3.33;;
20743;SDS011;56303;52.160;-0.428;2022-10-31T17:12:58;9.17;;;3.77;;
20743;SDS011;56303;52.160;-0.428;2022-10-31T17:15:30;9.60;;;4.30;;
20743;SDS011;56303;52.160;-0.428;2022-10-31T17:18:04;6.80;;;3.80;;
20743;SDS011;56303;52.160;-0.428;2022-10-31T17:20:31;8.80;;;3.83;;
20743;SDS011;56303;52.160;-0.428;2022-10-31T17:22:58;7.83;;;3.40;;